sensor_id;sensor_type;location;lat;lon;timestamp;P1;durP1;ratioP1;P2;durP2;ratioP2
1699;SDS011;847;48.058;7.810;2022-12-29T00:00:09;3.20;;;1.57;;
1699;SDS011;847;48.058;7.810;2022-12-29T00:02:37;2.20;;;1.40;;
1699;SDS011;847;48.058;7.810;2022-12-29T00:05:04;3.10;;;1.50;;
1699;SDS011;847;48.058;7.810;2022-12-29T00:07:33;1.53;;;0.90;;
1699;SDS011;847;48.058;7.810;2022-12-29T00:10:00;1.43;;;1.33;;
1699;SDS011;847;48.058;7.810;2022-12-29T00:12:26;3.57;;;1.40;;
1699;SDS011;847;48.058;7.810;2022-12-29T00:15:13;2.90;;;1.50;;
1699;SDS011;847;48.058;7.810;2022-12-29T00:17:58;3.10;;;1.30;;
1699;SDS011;847;48.058;7.810;2022-12-29T00:20:24;1.80;;;1.27;;
1699;SDS011;847;48.058;7.810;2022-12-29T00:23:10;1.33;;;1.10;;
1699;SDS011;847;48.058;7.810;2022-12-29T00:25:54;3.07;;;1.17;;
1699;SDS011;847;48.058;7.810;2022-12-29T00:28:38;1.87;;;1.40;;
1699;SDS011;847;48.058;7.810;2022-12-29T00:31:25;1.50;;;1.10;;
1699;SDS011;847;48.058;7.810;2022-12-29T00:34:10;1.50;;;1.03;;
1699;SDS011;847;48.058;7.810;2022-12-29T00:36:55;1.77;;;1.10;;
1699;SDS011;847;48.058;7.810;2022-12-29T00:39:23;1.20;;;1.10;;
1699;SDS011;847;48.058;7.810;2022-12-29T00:42:08;4.53;;;1.30;;
1699;SDS011;847;48.058;7.810;2022-12-29T00:44:58;2.33;;;1.00;;
1699;SDS011;847;48.058;7.810;2022-12-29T00:47:25;2.00;;;1.10;;
1699;SDS011;847;48.058;7.810;2022-12-29T00:49:52;1.50;;;1.30;;
1699;SDS011;847;48.058;7.810;2022-12-29T00:52:17;1.30;;;1.07;;
1699;SDS011;847;48.058;7.810;2022-12-29T00:54:45;2.03;;;1.10;;
1699;SDS011;847;48.058;7.810;2022-12-29T00:57:12;3.40;;;2.40;;
1699;SDS011;847;48.058;7.810;2022-12-29T00:59:40;2.27;;;1.40;;
1699;SDS011;847;48.058;7.810;2022-12-29T01:02:08;4.10;;;1.47;;
1699;SDS011;847;48.058;7.810;2022-12-29T01:04:35;3.00;;;1.37;;
1699;SDS011;847;48.058;7.810;2022-12-29T01:07:02;1.57;;;1.47;;
1699;SDS011;847;48.058;7.810;2022-12-29T01:09:29;1.87;;;1.43;;
1699;SDS011;847;48.058;7.810;2022-12-29T01:12:16;1.83;;;1.00;;
1699;SDS011;847;48.058;7.810;2022-12-29T01:15:02;1.57;;;1.20;;
1699;SDS011;847;48.058;7.810;2022-12-29T01:17:30;2.20;;;1.00;;
1699;SDS011;847;48.058;7.810;2022-12-29T01:19:56;2.80;;;1.23;;
1699;SDS011;847;48.058;7.810;2022-12-29T01:22:23;1.40;;;1.30;;
1699;SDS011;847;48.058;7.810;2022-12-29T01:24:50;1.93;;;1.30;;
1699;SDS011;847;48.058;7.810;2022-12-29T01:27:18;4.37;;;2.00;;
1699;SDS011;847;48.058;7.810;2022-12-29T01:29:44;2.30;;;1.20;;
1699;SDS011;847;48.058;7.810;2022-12-29T01:32:11;2.00;;;1.10;;
1699;SDS011;847;48.058;7.810;2022-12-29T01:34:38;2.47;;;1.50;;
1699;SDS011;847;48.058;7.810;2022-12-29T01:37:05;2.90;;;1.00;;
1699;SDS011;847;48.058;7.810;2022-12-29T01:39:31;2.90;;;1.50;;
1699;SDS011;847;48.058;7.810;2022-12-29T01:41:58;1.90;;;1.10;;
1699;SDS011;847;48.058;7.810;2022-12-29T01:47:21;1.93;;;1.33;;
1699;SDS011;847;48.058;7.810;2022-12-29T01:49:54;1.83;;;1.27;;
1699;SDS011;847;48.058;7.810;2022-12-29T01:52:24;4.47;;;1.33;;
1699;SDS011;847;48.058;7.810;2022-12-29T01:54:54;1.93;;;1.23;;
1699;SDS011;847;48.058;7.810;2022-12-29T01:57:24;6.33;;;1.50;;
1699;SDS011;847;48.058;7.810;2022-12-29T01:59:56;3.83;;;1.23;;
1699;SDS011;847;48.058;7.810;2022-12-29T02:02:28;2.57;;;1.40;;
1699;SDS011;847;48.058;7.810;2022-12-29T02:04:56;1.30;;;0.90;;
1699;SDS011;847;48.058;7.810;2022-12-29T02:07:26;3.17;;;1.40;;
1699;SDS011;847;48.058;7.810;2022-12-29T02:09:53;2.60;;;1.30;;
1699;SDS011;847;48.058;7.810;2022-12-29T02:12:22;3.50;;;1.10;;
1699;SDS011;847;48.058;7.810;2022-12-29T02:14:50;3.53;;;1.70;;
1699;SDS011;847;48.058;7.810;2022-12-29T02:17:24;1.30;;;1.20;;
1699;SDS011;847;48.058;7.810;2022-12-29T02:20:08;2.50;;;1.60;;
1699;SDS011;847;48.058;7.810;2022-12-29T02:22:58;3.87;;;1.43;;
1699;SDS011;847;48.058;7.810;2022-12-29T02:25:41;5.07;;;1.93;;
1699;SDS011;847;48.058;7.810;2022-12-29T02:28:29;2.50;;;1.33;;
1699;SDS011;847;48.058;7.810;2022-12-29T02:31:31;1.70;;;1.10;;
1699;SDS011;847;48.058;7.810;2022-12-29T02:34:10;1.20;;;1.10;;
1699;SDS011;847;48.058;7.810;2022-12-29T02:36:52;3.60;;;2.00;;
1699;SDS011;847;48.058;7.810;2022-12-29T02:39:28;2.57;;;1.60;;
1699;SDS011;847;48.058;7.810;2022-12-29T02:42:03;3.07;;;1.30;;
1699;SDS011;847;48.058;7.810;2022-12-29T02:44:37;4.53;;;1.70;;
1699;SDS011;847;48.058;7.810;2022-12-29T02:47:14;1.57;;;1.30;;
1699;SDS011;847;48.058;7.810;2022-12-29T02:49:46;1.83;;;1.70;;
1699;SDS011;847;48.058;7.810;2022-12-29T02:52:19;1.90;;;1.40;;
1699;SDS011;847;48.058;7.810;2022-12-29T02:54:53;2.30;;;1.30;;
1699;SDS011;847;48.058;7.810;2022-12-29T02:57:28;2.60;;;1.40;;
1699;SDS011;847;48.058;7.810;2022-12-29T02:59:58;3.73;;;1.40;;
1699;SDS011;847;48.058;7.810;2022-12-29T03:02:37;1.83;;;1.43;;
1699;SDS011;847;48.058;7.810;2022-12-29T03:05:18;2.60;;;1.77;;
1699;SDS011;847;48.058;7.810;2022-12-29T03:07:53;3.40;;;1.40;;
1699;SDS011;847;48.058;7.810;2022-12-29T03:10:28;3.10;;;1.50;;
1699;SDS011;847;48.058;7.810;2022-12-29T03:13:02;3.17;;;1.60;;
1699;SDS011;847;48.058;7.810;2022-12-29T03:15:53;2.67;;;1.90;;
1699;SDS011;847;48.058;7.810;2022-12-29T03:18:32;1.50;;;1.40;;
1699;SDS011;847;48.058;7.810;2022-12-29T03:21:08;2.83;;;1.60;;
1699;SDS011;847;48.058;7.810;2022-12-29T03:23:38;2.97;;;1.80;;
1699;SDS011;847;48.058;7.810;2022-12-29T03:26:08;2.80;;;1.50;;
1699;SDS011;847;48.058;7.810;2022-12-29T03:28:38;2.10;;;1.90;;
1699;SDS011;847;48.058;7.810;2022-12-29T03:31:07;2.13;;;1.93;;
1699;SDS011;847;48.058;7.810;2022-12-29T03:33:37;2.40;;;1.47;;
1699;SDS011;847;48.058;7.810;2022-12-29T03:36:06;2.90;;;1.80;;
1699;SDS011;847;48.058;7.810;2022-12-29T03:38:37;2.80;;;1.80;;
1699;SDS011;847;48.058;7.810;2022-12-29T03:41:10;2.53;;;1.73;;
1699;SDS011;847;48.058;7.810;2022-12-29T03:43:40;2.17;;;1.97;;
1699;SDS011;847;48.058;7.810;2022-12-29T03:46:07;2.80;;;1.73;;
1699;SDS011;847;48.058;7.810;2022-12-29T03:48:34;1.60;;;1.50;;
1699;SDS011;847;48.058;7.810;2022-12-29T03:51:02;2.70;;;1.60;;
1699;SDS011;847;48.058;7.810;2022-12-29T03:53:29;4.70;;;1.77;;
1699;SDS011;847;48.058;7.810;2022-12-29T03:55:55;2.83;;;2.10;;
1699;SDS011;847;48.058;7.810;2022-12-29T03:58:22;1.60;;;1.50;;
1699;SDS011;847;48.058;7.810;2022-12-29T04:00:49;3.10;;;2.03;;
1699;SDS011;847;48.058;7.810;2022-12-29T04:03:15;5.10;;;2.10;;
1699;SDS011;847;48.058;7.810;2022-12-29T04:05:42;2.33;;;1.60;;
1699;SDS011;847;48.058;7.810;2022-12-29T04:08:10;3.10;;;1.50;;
1699;SDS011;847;48.058;7.810;2022-12-29T04:10:37;3.90;;;2.10;;
1699;SDS011;847;48.058;7.810;2022-12-29T04:13:04;2.80;;;1.80;;
1699;SDS011;847;48.058;7.810;2022-12-29T04:15:31;2.90;;;1.87;;
1699;SDS011;847;48.058;7.810;2022-12-29T04:17:57;3.20;;;2.00;;
1699;SDS011;847;48.058;7.810;2022-12-29T04:20:24;2.00;;;1.80;;
1699;SDS011;847;48.058;7.810;2022-12-29T04:23:08;3.83;;;1.83;;
1699;SDS011;847;48.058;7.810;2022-12-29T04:25:36;3.37;;;2.03;;
1699;SDS011;847;48.058;7.810;2022-12-29T04:28:03;6.50;;;2.90;;
1699;SDS011;847;48.058;7.810;2022-12-29T04:30:30;3.87;;;1.63;;
1699;SDS011;847;48.058;7.810;2022-12-29T04:32:57;2.10;;;1.93;;
1699;SDS011;847;48.058;7.810;2022-12-29T04:35:23;3.33;;;1.90;;
1699;SDS011;847;48.058;7.810;2022-12-29T04:37:50;3.83;;;2.30;;
1699;SDS011;847;48.058;7.810;2022-12-29T04:40:18;5.67;;;2.07;;
1699;SDS011;847;48.058;7.810;2022-12-29T04:42:45;2.40;;;2.20;;
1699;SDS011;847;48.058;7.810;2022-12-29T04:45:12;3.53;;;2.00;;
1699;SDS011;847;48.058;7.810;2022-12-29T04:47:38;5.00;;;2.50;;
1699;SDS011;847;48.058;7.810;2022-12-29T04:50:05;3.50;;;2.10;;
1699;SDS011;847;48.058;7.810;2022-12-29T04:52:33;2.80;;;2.13;;
1699;SDS011;847;48.058;7.810;2022-12-29T04:54:59;2.60;;;2.10;;
1699;SDS011;847;48.058;7.810;2022-12-29T04:57:28;3.27;;;2.13;;
1699;SDS011;847;48.058;7.810;2022-12-29T04:59:55;2.77;;;2.00;;
1699;SDS011;847;48.058;7.810;2022-12-29T05:02:21;4.63;;;2.33;;
1699;SDS011;847;48.058;7.810;2022-12-29T05:04:48;3.13;;;2.40;;
1699;SDS011;847;48.058;7.810;2022-12-29T05:07:15;4.60;;;2.30;;
1699;SDS011;847;48.058;7.810;2022-12-29T05:09:42;2.67;;;2.10;;
1699;SDS011;847;48.058;7.810;2022-12-29T05:12:08;5.60;;;2.47;;
1699;SDS011;847;48.058;7.810;2022-12-29T05:14:37;2.43;;;1.80;;
1699;SDS011;847;48.058;7.810;2022-12-29T05:17:03;2.70;;;2.37;;
1699;SDS011;847;48.058;7.810;2022-12-29T05:19:30;3.77;;;2.00;;
1699;SDS011;847;48.058;7.810;2022-12-29T05:21:57;3.27;;;2.37;;
1699;SDS011;847;48.058;7.810;2022-12-29T05:24:24;2.40;;;2.20;;
1699;SDS011;847;48.058;7.810;2022-12-29T05:26:50;3.13;;;2.60;;
1699;SDS011;847;48.058;7.810;2022-12-29T05:29:17;3.93;;;2.27;;
1699;SDS011;847;48.058;7.810;2022-12-29T05:31:46;4.13;;;2.40;;
1699;SDS011;847;48.058;7.810;2022-12-29T05:34:12;2.93;;;2.30;;
1699;SDS011;847;48.058;7.810;2022-12-29T05:36:39;3.07;;;2.20;;
1699;SDS011;847;48.058;7.810;2022-12-29T05:39:06;5.17;;;2.80;;
1699;SDS011;847;48.058;7.810;2022-12-29T05:41:33;2.80;;;2.30;;
1699;SDS011;847;48.058;7.810;2022-12-29T05:44:01;4.30;;;2.23;;
1699;SDS011;847;48.058;7.810;2022-12-29T05:46:27;4.97;;;2.60;;
1699;SDS011;847;48.058;7.810;2022-12-29T05:48:56;3.67;;;2.70;;
1699;SDS011;847;48.058;7.810;2022-12-29T05:51:22;2.47;;;2.27;;
1699;SDS011;847;48.058;7.810;2022-12-29T05:53:49;3.07;;;2.30;;
1699;SDS011;847;48.058;7.810;2022-12-29T05:56:16;4.23;;;2.33;;
1699;SDS011;847;48.058;7.810;2022-12-29T05:58:43;2.17;;;1.97;;
1699;SDS011;847;48.058;7.810;2022-12-29T06:01:10;6.13;;;3.60;;
1699;SDS011;847;48.058;7.810;2022-12-29T06:03:37;2.97;;;2.23;;
1699;SDS011;847;48.058;7.810;2022-12-29T06:06:05;2.10;;;1.80;;
1699;SDS011;847;48.058;7.810;2022-12-29T06:08:32;2.70;;;1.70;;
1699;SDS011;847;48.058;7.810;2022-12-29T06:10:59;2.93;;;2.47;;
1699;SDS011;847;48.058;7.810;2022-12-29T06:13:26;2.10;;;1.73;;
1699;SDS011;847;48.058;7.810;2022-12-29T06:15:53;2.37;;;2.07;;
1699;SDS011;847;48.058;7.810;2022-12-29T06:18:20;3.67;;;1.87;;
1699;SDS011;847;48.058;7.810;2022-12-29T06:20:47;3.50;;;2.00;;
1699;SDS011;847;48.058;7.810;2022-12-29T06:23:15;2.00;;;1.90;;
1699;SDS011;847;48.058;7.810;2022-12-29T06:25:43;3.10;;;1.60;;
1699;SDS011;847;48.058;7.810;2022-12-29T06:28:10;1.97;;;1.60;;
1699;SDS011;847;48.058;7.810;2022-12-29T06:30:36;2.83;;;1.60;;
1699;SDS011;847;48.058;7.810;2022-12-29T06:33:03;3.47;;;1.53;;
1699;SDS011;847;48.058;7.810;2022-12-29T06:35:32;2.67;;;1.80;;
1699;SDS011;847;48.058;7.810;2022-12-29T06:37:59;1.60;;;1.47;;
1699;SDS011;847;48.058;7.810;2022-12-29T06:40:27;1.93;;;1.60;;
1699;SDS011;847;48.058;7.810;2022-12-29T06:42:54;10.70;;;3.20;;
1699;SDS011;847;48.058;7.810;2022-12-29T06:45:21;2.23;;;1.50;;
1699;SDS011;847;48.058;7.810;2022-12-29T06:47:48;1.70;;;1.50;;
1699;SDS011;847;48.058;7.810;2022-12-29T06:50:15;1.63;;;1.53;;
1699;SDS011;847;48.058;7.810;2022-12-29T06:52:42;3.13;;;2.10;;
1699;SDS011;847;48.058;7.810;2022-12-29T06:55:08;1.77;;;1.50;;
1699;SDS011;847;48.058;7.810;2022-12-29T06:57:37;2.60;;;1.57;;
1699;SDS011;847;48.058;7.810;2022-12-29T07:00:04;2.30;;;1.70;;
1699;SDS011;847;48.058;7.810;2022-12-29T07:02:32;9.03;;;2.13;;
1699;SDS011;847;48.058;7.810;2022-12-29T07:04:59;2.50;;;1.80;;
1699;SDS011;847;48.058;7.810;2022-12-29T07:07:25;2.00;;;1.90;;
1699;SDS011;847;48.058;7.810;2022-12-29T07:09:52;1.40;;;1.30;;
1699;SDS011;847;48.058;7.810;2022-12-29T07:12:19;2.63;;;1.50;;
1699;SDS011;847;48.058;7.810;2022-12-29T07:14:48;1.70;;;1.60;;
1699;SDS011;847;48.058;7.810;2022-12-29T07:17:15;3.30;;;1.80;;
1699;SDS011;847;48.058;7.810;2022-12-29T07:19:45;3.43;;;2.90;;
1699;SDS011;847;48.058;7.810;2022-12-29T07:22:11;3.47;;;3.17;;
1699;SDS011;847;48.058;7.810;2022-12-29T07:24:38;3.80;;;3.10;;
1699;SDS011;847;48.058;7.810;2022-12-29T07:27:05;3.50;;;3.13;;
1699;SDS011;847;48.058;7.810;2022-12-29T07:29:32;2.43;;;2.23;;
1699;SDS011;847;48.058;7.810;2022-12-29T07:32:00;2.77;;;2.57;;
1699;SDS011;847;48.058;7.810;2022-12-29T07:34:30;3.60;;;2.27;;
1699;SDS011;847;48.058;7.810;2022-12-29T07:36:56;1.97;;;1.87;;
1699;SDS011;847;48.058;7.810;2022-12-29T07:39:23;2.20;;;1.70;;
1699;SDS011;847;48.058;7.810;2022-12-29T07:41:50;2.00;;;1.67;;
1699;SDS011;847;48.058;7.810;2022-12-29T07:44:17;2.33;;;1.87;;
1699;SDS011;847;48.058;7.810;2022-12-29T07:46:43;2.30;;;2.07;;
1699;SDS011;847;48.058;7.810;2022-12-29T07:49:12;2.27;;;1.60;;
1699;SDS011;847;48.058;7.810;2022-12-29T07:51:38;4.57;;;2.00;;
1699;SDS011;847;48.058;7.810;2022-12-29T07:54:05;3.90;;;2.20;;
1699;SDS011;847;48.058;7.810;2022-12-29T07:56:32;5.30;;;1.90;;
1699;SDS011;847;48.058;7.810;2022-12-29T07:58:58;3.10;;;1.50;;
1699;SDS011;847;48.058;7.810;2022-12-29T08:01:25;2.83;;;2.20;;
1699;SDS011;847;48.058;7.810;2022-12-29T08:03:52;3.40;;;1.70;;
1699;SDS011;847;48.058;7.810;2022-12-29T08:06:20;2.63;;;1.67;;
1699;SDS011;847;48.058;7.810;2022-12-29T08:08:47;2.00;;;1.80;;
1699;SDS011;847;48.058;7.810;2022-12-29T08:11:14;2.87;;;2.00;;
1699;SDS011;847;48.058;7.810;2022-12-29T08:13:41;2.10;;;1.90;;
1699;SDS011;847;48.058;7.810;2022-12-29T08:16:07;2.00;;;1.90;;
1699;SDS011;847;48.058;7.810;2022-12-29T08:18:34;1.77;;;1.67;;
1699;SDS011;847;48.058;7.810;2022-12-29T08:21:01;2.13;;;1.80;;
1699;SDS011;847;48.058;7.810;2022-12-29T08:23:30;5.37;;;4.23;;
1699;SDS011;847;48.058;7.810;2022-12-29T08:25:58;6.67;;;5.17;;
1699;SDS011;847;48.058;7.810;2022-12-29T08:28:25;6.33;;;4.93;;
1699;SDS011;847;48.058;7.810;2022-12-29T08:30:52;3.60;;;3.07;;
1699;SDS011;847;48.058;7.810;2022-12-29T08:33:19;4.67;;;2.50;;
1699;SDS011;847;48.058;7.810;2022-12-29T08:35:45;2.63;;;1.33;;
1699;SDS011;847;48.058;7.810;2022-12-29T08:38:12;5.40;;;1.73;;
1699;SDS011;847;48.058;7.810;2022-12-29T08:40:40;2.73;;;2.13;;
1699;SDS011;847;48.058;7.810;2022-12-29T08:43:07;1.60;;;1.30;;
1699;SDS011;847;48.058;7.810;2022-12-29T08:45:34;8.43;;;2.53;;
1699;SDS011;847;48.058;7.810;2022-12-29T08:48:01;5.47;;;2.07;;
1699;SDS011;847;48.058;7.810;2022-12-29T08:50:27;3.33;;;2.10;;
1699;SDS011;847;48.058;7.810;2022-12-29T08:52:54;6.50;;;2.27;;
1699;SDS011;847;48.058;7.810;2022-12-29T08:55:21;3.03;;;2.10;;
1699;SDS011;847;48.058;7.810;2022-12-29T08:57:49;2.50;;;1.97;;
1699;SDS011;847;48.058;7.810;2022-12-29T09:00:17;3.80;;;1.50;;
1699;SDS011;847;48.058;7.810;2022-12-29T09:02:45;3.10;;;1.60;;
1699;SDS011;847;48.058;7.810;2022-12-29T09:05:12;3.73;;;1.60;;
1699;SDS011;847;48.058;7.810;2022-12-29T09:07:39;1.73;;;1.63;;
1699;SDS011;847;48.058;7.810;2022-12-29T09:10:06;2.03;;;1.67;;
1699;SDS011;847;48.058;7.810;2022-12-29T09:12:33;1.73;;;1.33;;
1699;SDS011;847;48.058;7.810;2022-12-29T09:15:01;3.13;;;1.80;;
1699;SDS011;847;48.058;7.810;2022-12-29T09:17:28;2.23;;;1.63;;
1699;SDS011;847;48.058;7.810;2022-12-29T09:20:08;2.03;;;1.53;;
1699;SDS011;847;48.058;7.810;2022-12-29T09:22:36;2.00;;;1.77;;
1699;SDS011;847;48.058;7.810;2022-12-29T09:25:03;2.57;;;1.33;;
1699;SDS011;847;48.058;7.810;2022-12-29T09:27:30;3.77;;;1.50;;
1699;SDS011;847;48.058;7.810;2022-12-29T09:29:57;2.27;;;1.67;;
1699;SDS011;847;48.058;7.810;2022-12-29T09:32:25;4.10;;;1.93;;
1699;SDS011;847;48.058;7.810;2022-12-29T09:34:52;2.13;;;1.90;;
1699;SDS011;847;48.058;7.810;2022-12-29T09:37:18;2.60;;;1.50;;
1699;SDS011;847;48.058;7.810;2022-12-29T09:39:46;1.10;;;1.00;;
1699;SDS011;847;48.058;7.810;2022-12-29T09:42:14;3.40;;;1.80;;
1699;SDS011;847;48.058;7.810;2022-12-29T09:44:48;2.23;;;1.20;;
1699;SDS011;847;48.058;7.810;2022-12-29T09:47:28;2.40;;;1.63;;
1699;SDS011;847;48.058;7.810;2022-12-29T09:49:56;1.73;;;1.60;;
1699;SDS011;847;48.058;7.810;2022-12-29T09:52:28;2.33;;;1.30;;
1699;SDS011;847;48.058;7.810;2022-12-29T09:54:58;3.83;;;1.70;;
1699;SDS011;847;48.058;7.810;2022-12-29T09:57:29;3.53;;;2.03;;
1699;SDS011;847;48.058;7.810;2022-12-29T10:00:03;5.40;;;1.90;;
1699;SDS011;847;48.058;7.810;2022-12-29T10:02:36;2.80;;;1.90;;
1699;SDS011;847;48.058;7.810;2022-12-29T10:05:12;3.50;;;1.97;;
1699;SDS011;847;48.058;7.810;2022-12-29T10:07:55;3.73;;;2.13;;
1699;SDS011;847;48.058;7.810;2022-12-29T10:10:34;3.73;;;2.43;;
1699;SDS011;847;48.058;7.810;2022-12-29T10:13:16;2.73;;;1.80;;
1699;SDS011;847;48.058;7.810;2022-12-29T10:15:54;2.83;;;1.60;;
1699;SDS011;847;48.058;7.810;2022-12-29T10:21:30;3.53;;;1.93;;
1699;SDS011;847;48.058;7.810;2022-12-29T10:24:09;9.60;;;7.30;;
1699;SDS011;847;48.058;7.810;2022-12-29T10:26:39;3.00;;;2.70;;
1699;SDS011;847;48.058;7.810;2022-12-29T10:29:11;3.30;;;2.63;;
1699;SDS011;847;48.058;7.810;2022-12-29T10:31:43;4.40;;;2.30;;
1699;SDS011;847;48.058;7.810;2022-12-29T10:34:16;6.17;;;2.70;;
1699;SDS011;847;48.058;7.810;2022-12-29T10:36:47;2.33;;;2.00;;
1699;SDS011;847;48.058;7.810;2022-12-29T10:39:16;3.93;;;2.30;;
1699;SDS011;847;48.058;7.810;2022-12-29T10:41:49;4.77;;;2.70;;
1699;SDS011;847;48.058;7.810;2022-12-29T10:44:19;2.47;;;1.97;;
1699;SDS011;847;48.058;7.810;2022-12-29T10:46:49;3.07;;;2.00;;
1699;SDS011;847;48.058;7.810;2022-12-29T10:49:22;4.40;;;2.70;;
1699;SDS011;847;48.058;7.810;2022-12-29T10:51:52;2.40;;;2.20;;
1699;SDS011;847;48.058;7.810;2022-12-29T10:54:23;4.20;;;2.10;;
1699;SDS011;847;48.058;7.810;2022-12-29T10:56:54;4.07;;;2.53;;
1699;SDS011;847;48.058;7.810;2022-12-29T10:59:28;4.80;;;2.20;;
1699;SDS011;847;48.058;7.810;2022-12-29T11:01:58;3.97;;;2.13;;
1699;SDS011;847;48.058;7.810;2022-12-29T11:04:43;2.90;;;1.90;;
1699;SDS011;847;48.058;7.810;2022-12-29T11:07:18;3.63;;;2.30;;
1699;SDS011;847;48.058;7.810;2022-12-29T11:09:46;2.73;;;2.30;;
1699;SDS011;847;48.058;7.810;2022-12-29T11:12:17;4.40;;;2.77;;
1699;SDS011;847;48.058;7.810;2022-12-29T11:14:46;7.40;;;2.57;;
1699;SDS011;847;48.058;7.810;2022-12-29T11:17:14;2.37;;;1.90;;
1699;SDS011;847;48.058;7.810;2022-12-29T11:19:44;4.90;;;2.93;;
1699;SDS011;847;48.058;7.810;2022-12-29T11:22:14;4.47;;;2.10;;
1699;SDS011;847;48.058;7.810;2022-12-29T11:24:48;4.40;;;2.40;;
1699;SDS011;847;48.058;7.810;2022-12-29T11:27:17;4.13;;;1.90;;
1699;SDS011;847;48.058;7.810;2022-12-29T11:29:45;2.50;;;1.80;;
1699;SDS011;847;48.058;7.810;2022-12-29T11:32:17;3.90;;;1.90;;
1699;SDS011;847;48.058;7.810;2022-12-29T11:34:47;5.00;;;2.33;;
1699;SDS011;847;48.058;7.810;2022-12-29T11:37:16;1.70;;;1.60;;
1699;SDS011;847;48.058;7.810;2022-12-29T11:39:46;3.60;;;2.17;;
1699;SDS011;847;48.058;7.810;2022-12-29T11:42:18;2.17;;;1.80;;
1699;SDS011;847;48.058;7.810;2022-12-29T11:44:49;4.20;;;1.87;;
1699;SDS011;847;48.058;7.810;2022-12-29T11:47:25;2.20;;;1.50;;
1699;SDS011;847;48.058;7.810;2022-12-29T11:49:56;5.00;;;1.90;;
1699;SDS011;847;48.058;7.810;2022-12-29T11:52:26;2.20;;;1.80;;
1699;SDS011;847;48.058;7.810;2022-12-29T11:54:54;3.70;;;1.90;;
1699;SDS011;847;48.058;7.810;2022-12-29T11:57:22;3.10;;;1.87;;
1699;SDS011;847;48.058;7.810;2022-12-29T11:59:52;4.10;;;1.50;;
1699;SDS011;847;48.058;7.810;2022-12-29T12:05:14;4.53;;;1.67;;
1699;SDS011;847;48.058;7.810;2022-12-29T12:07:46;3.13;;;2.87;;
1699;SDS011;847;48.058;7.810;2022-12-29T12:10:20;2.30;;;1.70;;
1699;SDS011;847;48.058;7.810;2022-12-29T12:12:53;2.73;;;1.67;;
1699;SDS011;847;48.058;7.810;2022-12-29T12:15:27;2.93;;;1.67;;
1699;SDS011;847;48.058;7.810;2022-12-29T12:18:00;3.60;;;2.00;;
1699;SDS011;847;48.058;7.810;2022-12-29T12:20:34;3.23;;;2.00;;
1699;SDS011;847;48.058;7.810;2022-12-29T12:23:11;2.60;;;2.37;;
1699;SDS011;847;48.058;7.810;2022-12-29T12:25:48;1.60;;;1.50;;
1699;SDS011;847;48.058;7.810;2022-12-29T12:28:25;1.83;;;1.60;;
1699;SDS011;847;48.058;7.810;2022-12-29T12:31:00;4.70;;;2.20;;
1699;SDS011;847;48.058;7.810;2022-12-29T12:33:31;2.50;;;1.80;;
1699;SDS011;847;48.058;7.810;2022-12-29T12:36:14;3.73;;;3.17;;
1699;SDS011;847;48.058;7.810;2022-12-29T12:39:04;5.63;;;4.20;;
1699;SDS011;847;48.058;7.810;2022-12-29T12:41:39;9.90;;;5.80;;
1699;SDS011;847;48.058;7.810;2022-12-29T12:44:18;3.47;;;3.17;;
1699;SDS011;847;48.058;7.810;2022-12-29T12:47:07;4.33;;;3.90;;
1699;SDS011;847;48.058;7.810;2022-12-29T12:53:00;9.30;;;4.80;;
1699;SDS011;847;48.058;7.810;2022-12-29T12:55:55;4.97;;;3.63;;
1699;SDS011;847;48.058;7.810;2022-12-29T12:58:31;8.83;;;5.93;;
1699;SDS011;847;48.058;7.810;2022-12-29T13:01:06;11.10;;;4.70;;
1699;SDS011;847;48.058;7.810;2022-12-29T13:03:50;7.03;;;4.83;;
1699;SDS011;847;48.058;7.810;2022-12-29T13:06:31;5.60;;;4.00;;
1699;SDS011;847;48.058;7.810;2022-12-29T13:09:12;5.73;;;3.97;;
1699;SDS011;847;48.058;7.810;2022-12-29T13:11:55;2.83;;;2.50;;
1699;SDS011;847;48.058;7.810;2022-12-29T13:14:39;3.10;;;1.73;;
1699;SDS011;847;48.058;7.810;2022-12-29T13:17:14;3.87;;;2.53;;
1699;SDS011;847;48.058;7.810;2022-12-29T13:19:48;4.83;;;2.33;;
1699;SDS011;847;48.058;7.810;2022-12-29T13:22:24;4.10;;;2.87;;
1699;SDS011;847;48.058;7.810;2022-12-29T13:25:02;3.60;;;2.57;;
1699;SDS011;847;48.058;7.810;2022-12-29T13:27:48;4.03;;;2.30;;
1699;SDS011;847;48.058;7.810;2022-12-29T13:30:22;21.03;;;3.60;;
1699;SDS011;847;48.058;7.810;2022-12-29T13:32:56;2.40;;;2.20;;
1699;SDS011;847;48.058;7.810;2022-12-29T13:35:41;5.17;;;2.37;;
1699;SDS011;847;48.058;7.810;2022-12-29T13:38:22;4.50;;;1.97;;
1699;SDS011;847;48.058;7.810;2022-12-29T13:40:54;2.57;;;2.10;;
1699;SDS011;847;48.058;7.810;2022-12-29T13:43:22;2.27;;;2.07;;
1699;SDS011;847;48.058;7.810;2022-12-29T13:45:55;2.10;;;1.87;;
1699;SDS011;847;48.058;7.810;2022-12-29T13:48:29;2.10;;;1.77;;
1699;SDS011;847;48.058;7.810;2022-12-29T13:51:03;3.63;;;2.00;;
1699;SDS011;847;48.058;7.810;2022-12-29T13:53:33;3.80;;;2.10;;
1699;SDS011;847;48.058;7.810;2022-12-29T13:56:10;5.13;;;3.03;;
1699;SDS011;847;48.058;7.810;2022-12-29T13:58:43;3.23;;;2.10;;
1699;SDS011;847;48.058;7.810;2022-12-29T14:01:17;3.70;;;2.20;;
1699;SDS011;847;48.058;7.810;2022-12-29T14:03:48;5.33;;;2.10;;
1699;SDS011;847;48.058;7.810;2022-12-29T14:06:19;3.30;;;2.40;;
1699;SDS011;847;48.058;7.810;2022-12-29T14:08:49;4.10;;;2.40;;
1699;SDS011;847;48.058;7.810;2022-12-29T14:11:20;5.13;;;3.37;;
1699;SDS011;847;48.058;7.810;2022-12-29T14:13:49;3.50;;;2.40;;
1699;SDS011;847;48.058;7.810;2022-12-29T14:16:29;2.77;;;2.50;;
1699;SDS011;847;48.058;7.810;2022-12-29T14:19:10;3.97;;;2.43;;
1699;SDS011;847;48.058;7.810;2022-12-29T14:21:40;8.27;;;3.73;;
1699;SDS011;847;48.058;7.810;2022-12-29T14:24:26;3.03;;;2.50;;
1699;SDS011;847;48.058;7.810;2022-12-29T14:30:07;16.57;;;9.40;;
1699;SDS011;847;48.058;7.810;2022-12-29T14:33:24;13.00;;;8.30;;
1699;SDS011;847;48.058;7.810;2022-12-29T14:35:53;5.20;;;4.60;;
1699;SDS011;847;48.058;7.810;2022-12-29T14:38:25;8.07;;;6.07;;
1699;SDS011;847;48.058;7.810;2022-12-29T14:43:54;37.63;;;20.87;;
1699;SDS011;847;48.058;7.810;2022-12-29T14:46:26;16.90;;;9.37;;
1699;SDS011;847;48.058;7.810;2022-12-29T14:49:14;3.73;;;3.30;;
1699;SDS011;847;48.058;7.810;2022-12-29T14:51:46;3.30;;;2.60;;
1699;SDS011;847;48.058;7.810;2022-12-29T14:57:22;7.10;;;2.87;;
1699;SDS011;847;48.058;7.810;2022-12-29T15:00:01;4.60;;;2.67;;
1699;SDS011;847;48.058;7.810;2022-12-29T15:02:34;2.87;;;2.37;;
1699;SDS011;847;48.058;7.810;2022-12-29T15:05:05;7.47;;;4.40;;
1699;SDS011;847;48.058;7.810;2022-12-29T15:07:48;11.33;;;6.17;;
1699;SDS011;847;48.058;7.810;2022-12-29T15:10:16;22.47;;;10.50;;
1699;SDS011;847;48.058;7.810;2022-12-29T15:12:45;8.13;;;4.17;;
1699;SDS011;847;48.058;7.810;2022-12-29T15:15:19;9.93;;;5.83;;
1699;SDS011;847;48.058;7.810;2022-12-29T15:17:48;5.17;;;3.33;;
1699;SDS011;847;48.058;7.810;2022-12-29T15:20:19;4.53;;;2.83;;
1699;SDS011;847;48.058;7.810;2022-12-29T15:22:52;5.47;;;2.57;;
1699;SDS011;847;48.058;7.810;2022-12-29T15:25:21;6.17;;;3.00;;
1699;SDS011;847;48.058;7.810;2022-12-29T15:27:48;3.67;;;2.80;;
1699;SDS011;847;48.058;7.810;2022-12-29T15:30:17;3.33;;;2.90;;
1699;SDS011;847;48.058;7.810;2022-12-29T15:32:45;4.20;;;2.77;;
1699;SDS011;847;48.058;7.810;2022-12-29T15:35:29;2.80;;;2.27;;
1699;SDS011;847;48.058;7.810;2022-12-29T15:37:58;4.10;;;3.00;;
1699;SDS011;847;48.058;7.810;2022-12-29T15:40:28;5.70;;;2.80;;
1699;SDS011;847;48.058;7.810;2022-12-29T15:43:03;5.70;;;4.10;;
1699;SDS011;847;48.058;7.810;2022-12-29T15:45:42;8.73;;;5.33;;
1699;SDS011;847;48.058;7.810;2022-12-29T15:48:10;3.97;;;3.53;;
1699;SDS011;847;48.058;7.810;2022-12-29T15:50:43;4.27;;;3.80;;
1699;SDS011;847;48.058;7.810;2022-12-29T15:53:11;5.00;;;3.13;;
1699;SDS011;847;48.058;7.810;2022-12-29T15:55:42;13.50;;;5.50;;
1699;SDS011;847;48.058;7.810;2022-12-29T15:58:19;8.53;;;5.20;;
1699;SDS011;847;48.058;7.810;2022-12-29T16:00:48;16.33;;;10.30;;
1699;SDS011;847;48.058;7.810;2022-12-29T16:03:17;10.93;;;6.60;;
1699;SDS011;847;48.058;7.810;2022-12-29T16:05:51;9.60;;;6.00;;
1699;SDS011;847;48.058;7.810;2022-12-29T16:08:24;17.33;;;9.30;;
1699;SDS011;847;48.058;7.810;2022-12-29T16:10:57;12.23;;;7.73;;
1699;SDS011;847;48.058;7.810;2022-12-29T16:13:26;13.03;;;7.93;;
1699;SDS011;847;48.058;7.810;2022-12-29T16:15:56;29.60;;;17.70;;